createdAt,value
2019-03-27T00:04:10.984Z,2.83
2019-03-27T00:09:13.766Z,2.81
2019-03-27T00:14:15.855Z,2.80
2019-03-27T00:19:18.622Z,2.79
2019-03-27T00:24:21.210Z,2.79
2019-03-27T00:29:23.160Z,2.77
2019-03-27T00:34:24.935Z,2.78
2019-03-27T00:39:26.973Z,2.68
2019-03-27T00:44:28.687Z,2.66
2019-03-27T00:49:30.396Z,2.59
2019-03-27T00:54:33.956Z,2.55
2019-03-27T00:59:36.086Z,2.45
2019-03-27T01:04:37.732Z,2.37
2019-03-27T01:09:39.723Z,2.31
2019-03-27T01:14:41.530Z,2.24
2019-03-27T01:19:43.174Z,2.19
2019-03-27T01:24:44.846Z,2.12
2019-03-27T01:29:46.555Z,1.92
2019-03-27T01:34:48.223Z,1.79
2019-03-27T01:39:51.230Z,1.68
2019-03-27T01:44:52.834Z,1.70
2019-03-27T01:49:54.470Z,1.63
2019-03-27T01:54:56.094Z,1.57
2019-03-27T01:59:57.747Z,1.48
2019-03-27T02:04:59.648Z,1.34
2019-03-27T02:10:01.812Z,1.30
2019-03-27T02:15:06.966Z,1.23
2019-03-27T02:20:08.778Z,1.21
2019-03-27T02:25:10.785Z,1.19
2019-03-27T02:30:12.952Z,1.17
2019-03-27T02:35:14.638Z,1.13
2019-03-27T02:40:16.240Z,1.13
2019-03-27T02:45:17.938Z,1.06
2019-03-27T02:50:19.549Z,0.95
2019-03-27T02:55:21.164Z,0.98
2019-03-27T03:00:23.210Z,0.92
2019-03-27T03:05:24.950Z,0.84
2019-03-27T03:10:26.536Z,0.81
2019-03-27T03:15:28.500Z,0.73
2019-03-27T03:20:30.096Z,0.75
2019-03-27T03:25:31.691Z,0.77
2019-03-27T03:30:34.562Z,0.75
2019-03-27T03:35:36.283Z,0.69
2019-03-27T03:40:38.087Z,0.67
2019-03-27T03:45:39.698Z,0.63
2019-03-27T03:50:42.112Z,0.57
2019-03-27T03:55:44.083Z,0.58
2019-03-27T04:00:46.314Z,0.57
2019-03-27T04:05:47.912Z,0.50
2019-03-27T04:10:49.555Z,0.47
2019-03-27T04:15:51.263Z,0.42
2019-03-27T04:20:52.881Z,0.36
2019-03-27T04:26:09.048Z,0.36
2019-03-27T04:30:58.273Z,0.31
2019-03-27T04:36:00.158Z,0.28
2019-03-27T04:41:01.976Z,0.27
2019-03-27T04:46:03.587Z,0.24
2019-03-27T04:51:05.330Z,0.23
2019-03-27T04:56:07.039Z,0.17
2019-03-27T05:01:08.702Z,0.16
2019-03-27T05:06:10.504Z,0.19
2019-03-27T05:11:12.110Z,0.25
2019-03-27T05:16:13.723Z,0.32
2019-03-27T05:21:15.893Z,0.45
2019-03-27T05:26:17.498Z,0.57
2019-03-27T05:31:19.177Z,0.73
2019-03-27T05:36:20.935Z,0.92
2019-03-27T05:41:22.535Z,1.08
2019-03-27T05:46:26.601Z,1.19
2019-03-27T05:51:27.810Z,1.30
2019-03-27T05:56:29.424Z,1.47
2019-03-27T06:01:31.094Z,1.65
2019-03-27T06:06:32.751Z,1.87
2019-03-27T06:11:34.393Z,2.19
2019-03-27T06:16:36.066Z,2.40
2019-03-27T06:21:37.686Z,2.61
2019-03-27T06:26:39.310Z,2.67
2019-03-27T06:31:40.960Z,2.81
2019-03-27T06:36:42.634Z,2.98
2019-03-27T06:41:44.363Z,3.17
2019-03-27T06:46:45.979Z,3.32
2019-03-27T06:51:47.600Z,3.49
2019-03-27T06:56:49.406Z,3.76
2019-03-27T07:01:52.164Z,3.55
2019-03-27T07:06:53.765Z,2.93
2019-03-27T07:11:55.570Z,3.28
2019-03-27T07:16:57.227Z,3.65
2019-03-27T07:21:58.835Z,3.97
2019-03-27T07:27:00.492Z,4.01
2019-03-27T07:32:02.208Z,4.31
2019-03-27T07:37:04.021Z,4.55
2019-03-27T07:42:05.625Z,4.78
2019-03-27T07:47:07.249Z,4.89
2019-03-27T07:52:08.863Z,4.92
2019-03-27T07:57:10.480Z,5.22
2019-03-27T08:02:12.093Z,5.69
2019-03-27T08:07:26.240Z,6.13
2019-03-27T08:12:17.341Z,6.21
2019-03-27T08:17:18.961Z,5.65
2019-03-27T08:22:20.587Z,5.97
2019-03-27T08:27:22.195Z,6.34
2019-03-27T08:32:23.852Z,6.55
2019-03-27T08:37:25.545Z,6.64
2019-03-27T08:42:27.164Z,6.83
2019-03-27T08:47:28.879Z,7.11
2019-03-27T08:52:30.474Z,6.94
2019-03-27T08:57:32.293Z,6.99
2019-03-27T09:02:33.901Z,7.39
2019-03-27T09:07:35.667Z,7.56
2019-03-27T09:12:37.277Z,7.67
2019-03-27T09:17:38.931Z,7.77
2019-03-27T09:22:41.645Z,7.93
2019-03-27T09:27:43.288Z,8.01
2019-03-27T09:32:45.026Z,8.29
2019-03-27T09:37:46.787Z,8.59
2019-03-27T09:42:48.434Z,8.55
2019-03-27T09:47:50.554Z,8.73
2019-03-27T09:52:52.268Z,8.84
2019-03-27T09:57:54.093Z,8.66
2019-03-27T10:02:57.222Z,8.58
2019-03-27T10:07:59.507Z,8.44
2019-03-27T10:13:01.118Z,8.70
2019-03-27T10:18:03.286Z,8.56
2019-03-27T10:23:04.889Z,9.05
2019-03-27T10:28:06.494Z,9.12
2019-03-27T10:33:08.317Z,9.26
2019-03-27T10:38:10.034Z,9.48
2019-03-27T10:43:11.641Z,9.62
2019-03-27T10:48:13.881Z,9.88
2019-03-27T10:53:15.483Z,9.60
2019-03-27T10:58:18.194Z,9.28
2019-03-27T11:03:21.138Z,9.91
2019-03-27T11:08:22.948Z,10.19
2019-03-27T11:13:24.554Z,10.45
2019-03-27T11:18:26.192Z,10.81
2019-03-27T11:23:27.844Z,11.02
2019-03-27T11:28:29.555Z,11.25
2019-03-27T11:33:31.175Z,10.94
2019-03-27T11:38:32.994Z,10.96
2019-03-27T11:43:34.955Z,11.16
2019-03-27T11:48:36.872Z,10.67
2019-03-27T11:53:38.492Z,10.55
2019-03-27T11:58:40.111Z,10.99
2019-03-27T12:03:41.726Z,11.39
2019-03-27T12:08:43.622Z,10.55
2019-03-27T12:13:45.267Z,10.88
2019-03-27T12:18:46.876Z,11.21
2019-03-27T12:23:48.495Z,11.02
2019-03-27T12:28:50.215Z,11.54
2019-03-27T12:33:51.934Z,11.63
2019-03-27T12:38:53.723Z,11.64
2019-03-27T12:43:55.391Z,11.36
2019-03-27T12:48:57.268Z,10.58
2019-03-27T12:53:58.987Z,10.75
2019-03-27T12:59:00.716Z,11.58
2019-03-27T13:04:02.948Z,11.32
2019-03-27T13:09:06.697Z,11.68
2019-03-27T13:14:09.450Z,11.86
2019-03-27T13:19:11.228Z,11.87
2019-03-27T13:24:12.954Z,12.59
2019-03-27T13:29:14.573Z,11.42
2019-03-27T13:34:16.184Z,11.28
2019-03-27T13:39:17.852Z,10.84
2019-03-27T13:44:19.678Z,10.23
2019-03-27T13:49:21.463Z,9.68
2019-03-27T13:54:23.076Z,9.49
2019-03-27T13:59:24.684Z,9.47
2019-03-27T14:04:26.508Z,9.28
2019-03-27T14:09:28.200Z,9.07
2019-03-27T14:14:30.050Z,8.88
2019-03-27T14:19:31.722Z,8.75
2019-03-27T14:24:33.336Z,8.54
2019-03-27T14:29:34.956Z,9.05
2019-03-27T14:34:36.566Z,9.47
2019-03-27T14:39:38.331Z,9.84
2019-03-27T14:44:40.047Z,9.79
2019-03-27T14:49:41.721Z,9.56
2019-03-27T14:54:43.644Z,9.47
2019-03-27T14:59:45.270Z,9.28
2019-03-27T15:04:46.874Z,9.30
2019-03-27T15:09:50.557Z,9.25
2019-03-27T15:14:53.260Z,9.31
2019-03-27T15:19:54.918Z,9.57
2019-03-27T15:24:56.518Z,9.65
2019-03-27T15:29:58.472Z,9.47
2019-03-27T15:35:00.542Z,9.18
2019-03-27T15:40:05.171Z,8.73
2019-03-27T15:45:07.994Z,8.34
2019-03-27T15:50:10.378Z,8.11
2019-03-27T15:55:12.194Z,7.98
2019-03-27T16:00:15.127Z,7.84
2019-03-27T16:05:17.165Z,7.72
2019-03-27T16:10:19.014Z,7.63
2019-03-27T16:15:20.747Z,7.66
2019-03-27T16:20:22.559Z,7.67
2019-03-27T16:25:24.270Z,7.61
2019-03-27T16:30:26.855Z,7.56
2019-03-27T16:35:28.479Z,7.48
2019-03-27T16:40:45.006Z,7.38
2019-03-27T16:45:47.133Z,7.29
2019-03-27T16:50:49.404Z,7.12
2019-03-27T16:55:51.865Z,7.05
2019-03-27T17:00:53.593Z,6.90
2019-03-27T17:05:55.204Z,6.80
2019-03-27T17:10:56.853Z,6.67
2019-03-27T17:15:58.575Z,6.54
2019-03-27T17:21:00.456Z,6.37
2019-03-27T17:26:02.557Z,6.27
2019-03-27T17:31:04.676Z,6.20
2019-03-27T17:36:06.447Z,6.06
2019-03-27T17:41:08.240Z,5.97
2019-03-27T17:46:10.098Z,5.92
2019-03-27T17:51:11.739Z,5.82
2019-03-27T17:56:13.460Z,5.75
2019-03-27T18:01:15.286Z,5.67
2019-03-27T18:06:16.968Z,5.57
2019-03-27T18:11:18.615Z,5.52
2019-03-27T18:16:20.227Z,5.42
2019-03-27T18:21:21.832Z,5.45
2019-03-27T18:26:25.135Z,5.33
2019-03-27T18:31:26.742Z,5.29
2019-03-27T18:36:28.418Z,5.23
2019-03-27T18:41:30.107Z,5.18
2019-03-27T18:46:31.700Z,5.09
2019-03-27T18:51:33.309Z,5.02
2019-03-27T18:56:34.916Z,4.95
2019-03-27T19:01:36.632Z,4.90
2019-03-27T19:06:38.888Z,4.81
2019-03-27T19:11:40.570Z,4.79
2019-03-27T19:16:44.016Z,4.69
2019-03-27T19:21:45.633Z,4.61
2019-03-27T19:26:48.510Z,4.57
2019-03-27T19:31:50.310Z,4.49
2019-03-27T19:36:52.122Z,4.44
2019-03-27T19:41:53.858Z,4.41
2019-03-27T19:46:55.670Z,4.41
2019-03-27T19:51:57.277Z,4.42
2019-03-27T19:56:59.116Z,4.37
2019-03-27T20:02:00.928Z,4.38
2019-03-27T20:07:02.778Z,4.36
2019-03-27T20:12:04.582Z,4.38
2019-03-27T20:17:06.599Z,4.34
2019-03-27T20:22:08.523Z,4.32
2019-03-27T20:27:10.340Z,4.32
2019-03-27T20:32:12.059Z,4.25
2019-03-27T20:37:13.900Z,4.26
2019-03-27T20:42:15.678Z,4.23
2019-03-27T20:47:17.432Z,4.19
2019-03-27T20:52:19.151Z,4.16
2019-03-27T20:57:20.875Z,4.17
2019-03-27T21:02:22.809Z,4.11
2019-03-27T21:07:25.950Z,4.11
2019-03-27T21:12:27.682Z,4.11
2019-03-27T21:17:29.332Z,4.08
2019-03-27T21:22:30.949Z,4.04
2019-03-27T21:27:34.777Z,4.00
2019-03-27T21:32:36.711Z,3.93
2019-03-27T21:37:38.369Z,3.92
2019-03-27T21:42:40.034Z,3.84
2019-03-27T21:47:41.696Z,3.83
2019-03-27T21:52:43.690Z,3.77
2019-03-27T21:57:46.399Z,3.74
2019-03-27T22:02:48.013Z,3.73
2019-03-27T22:07:49.615Z,3.76
2019-03-27T22:12:51.332Z,3.80
2019-03-27T22:17:52.984Z,3.85
2019-03-27T22:22:54.627Z,3.91
2019-03-27T22:27:56.390Z,3.97
2019-03-27T22:32:58.098Z,4.05
2019-03-27T22:37:59.707Z,4.08
2019-03-27T22:43:01.612Z,4.10
2019-03-27T22:48:03.531Z,4.17
2019-03-27T22:53:05.291Z,4.24
2019-03-27T22:58:06.899Z,4.31
2019-03-27T23:03:18.130Z,4.34
2019-03-27T23:08:12.119Z,4.40
2019-03-27T23:13:13.956Z,4.47
2019-03-27T23:18:15.710Z,4.49
2019-03-27T23:23:17.378Z,4.47
2019-03-27T23:28:18.983Z,4.52
2019-03-27T23:33:20.684Z,4.58
2019-03-27T23:38:22.295Z,4.57
2019-03-27T23:43:24.105Z,4.57
2019-03-27T23:48:25.942Z,4.60
2019-03-27T23:53:27.544Z,4.65
2019-03-27T23:58:29.161Z,4.63
